Time;durP1;ratioP1;P1;durP2;ratioP2;P2;SDS_P1;SDS_P2;PMS_P1;PMS_P2;Temp;Humidity;BMP_temperature;BMP_pressure;BME280_temperature;BME280_humidity;BME280_pressure;Samples;Min_cycle;Max_cycle;Signal;HPM_P1;HPM_P2
2022/01/09 00:01:21;;;;;;;75.20;36.85;;;;;;;;;;10516702;28;20062;-70
2022/01/09 00:06:25;;;;;;;78.27;36.30;;;;;;;;;;10509946;28;20053;-70
2022/01/09 00:11:28;;;;;;;74.00;36.08;;;;;;;;;;10483848;28;20290;-71
2022/01/09 00:16:31;;;;;;;72.15;35.00;;;;;;;;;;10475380;28;20061;-71
2022/01/09 00:21:35;;;;;;;66.40;33.60;;;;;;;;;;10501734;28;20094;-70
2022/01/09 00:26:38;;;;;;;68.13;32.95;;;;;;;;;;10515967;28;20049;-70
2022/01/09 00:31:40;;;;;;;67.07;32.60;;;;;;;;;;10516662;28;20052;-70
2022/01/09 00:36:44;;;;;;;71.70;32.10;;;;;;;;;;10515621;28;20354;-70
2022/01/09 00:41:47;;;;;;;69.43;33.15;;;;;;;;;;10515612;28;20313;-69
2022/01/09 00:46:50;;;;;;;65.22;30.88;;;;;;;;;;10515975;28;20040;-70
2022/01/09 00:51:55;;;;;;;66.68;31.45;;;;;;;;;;10514520;28;20263;-69
2022/01/09 00:56:58;;;;;;;72.07;32.97;;;;;;;;;;10515152;28;20336;-70
2022/01/09 01:02:01;;;;;;;72.70;33.03;;;;;;;;;;10514515;28;20071;-70
2022/01/09 01:07:05;;;;;;;68.05;32.92;;;;;;;;;;10515624;28;20044;-71
2022/01/09 01:12:09;;;;;;;79.63;33.90;;;;;;;;;;10514874;28;20075;-69
2022/01/09 01:17:13;;;;;;;71.47;33.30;;;;;;;;;;10515147;28;20240;-69
2022/01/09 01:22:17;;;;;;;66.75;31.98;;;;;;;;;;10515346;28;20059;-70
2022/01/09 01:27:20;;;;;;;69.15;33.35;;;;;;;;;;10513770;28;20044;-70
2022/01/09 01:32:23;;;;;;;70.35;34.10;;;;;;;;;;10514153;28;20348;-70
2022/01/09 01:37:28;;;;;;;69.22;32.50;;;;;;;;;;10514418;28;20055;-70
2022/01/09 01:42:30;;;;;;;66.97;31.40;;;;;;;;;;10514821;28;20036;-69
2022/01/09 01:47:33;;;;;;;64.60;31.48;;;;;;;;;;10514340;28;20071;-71
2022/01/09 01:52:42;;;;;;;63.63;30.67;;;;;;;;;;10515420;28;20348;-71
2022/01/09 01:57:46;;;;;;;66.95;32.47;;;;;;;;;;10528313;28;20262;-70
2022/01/09 02:02:48;;;;;;;63.97;31.70;;;;;;;;;;10517334;28;20032;-71
2022/01/09 02:07:55;;;;;;;64.75;30.58;;;;;;;;;;10521496;28;20047;-70
2022/01/09 02:12:58;;;;;;;65.80;31.45;;;;;;;;;;10535826;28;20044;-70
2022/01/09 02:18:02;;;;;;;68.25;33.10;;;;;;;;;;10521360;28;20068;-70
2022/01/09 02:23:07;;;;;;;67.05;30.63;;;;;;;;;;10520810;28;20047;-70
2022/01/09 02:28:12;;;;;;;69.63;32.58;;;;;;;;;;10520171;28;20053;-71
2022/01/09 02:33:17;;;;;;;75.85;34.20;;;;;;;;;;10520695;28;20045;-70
2022/01/09 02:38:22;;;;;;;72.60;33.43;;;;;;;;;;10519934;28;20049;-71
2022/01/09 02:43:25;;;;;;;69.33;32.60;;;;;;;;;;10520551;28;20300;-70
2022/01/09 02:48:32;;;;;;;65.65;32.63;;;;;;;;;;10520457;28;20279;-70
2022/01/09 02:53:38;;;;;;;65.35;31.77;;;;;;;;;;10520130;28;20044;-70
2022/01/09 02:58:41;;;;;;;67.43;32.25;;;;;;;;;;10520914;28;20236;-70
2022/01/09 03:03:44;;;;;;;62.25;29.70;;;;;;;;;;10520637;28;20059;-71
2022/01/09 03:08:48;;;;;;;62.50;29.75;;;;;;;;;;10520096;28;20105;-70
2022/01/09 03:13:50;;;;;;;64.30;29.77;;;;;;;;;;10520805;28;20056;-72
2022/01/09 03:18:54;;;;;;;68.55;32.90;;;;;;;;;;10519760;28;20060;-70
2022/01/09 03:23:58;;;;;;;72.22;32.25;;;;;;;;;;10517586;28;21439;-71
2022/01/09 03:29:00;;;;;;;74.65;32.65;;;;;;;;;;10507982;28;20048;-70
2022/01/09 03:34:03;;;;;;;67.63;31.08;;;;;;;;;;10518891;28;20052;-70
2022/01/09 03:39:07;;;;;;;73.75;31.10;;;;;;;;;;10518325;28;20051;-70
2022/01/09 03:44:10;;;;;;;70.90;29.98;;;;;;;;;;10516778;28;20059;-71
2022/01/09 03:49:13;;;;;;;70.97;33.38;;;;;;;;;;10519717;28;20098;-70
2022/01/09 03:54:17;;;;;;;70.20;30.55;;;;;;;;;;10518553;28;20064;-70
2022/01/09 03:59:20;;;;;;;63.00;30.83;;;;;;;;;;10517579;28;20036;-70
2022/01/09 04:04:23;;;;;;;66.35;31.52;;;;;;;;;;10517761;28;20047;-70
2022/01/09 04:09:38;;;;;;;72.00;31.40;;;;;;;;;;10516553;28;20071;-71
2022/01/09 04:14:41;;;;;;;65.50;30.38;;;;;;;;;;10529873;28;20060;-71
2022/01/09 04:19:43;;;;;;;81.70;34.80;;;;;;;;;;10516733;28;20045;-71
2022/01/09 04:24:47;;;;;;;79.80;34.80;;;;;;;;;;10514200;28;20271;-71
2022/01/09 04:29:50;;;;;;;79.82;33.33;;;;;;;;;;10516920;28;20040;-71
2022/01/09 04:34:53;;;;;;;70.50;31.92;;;;;;;;;;10515653;28;20089;-71
2022/01/09 04:39:57;;;;;;;64.20;28.52;;;;;;;;;;10516332;28;20048;-70
2022/01/09 04:45:00;;;;;;;76.70;33.67;;;;;;;;;;10514286;28;20049;-70
2022/01/09 04:50:03;;;;;;;63.30;28.77;;;;;;;;;;10483594;28;20045;-71
2022/01/09 04:55:09;;;;;;;81.45;35.70;;;;;;;;;;10507370;28;20040;-70
2022/01/09 05:00:13;;;;;;;82.82;34.35;;;;;;;;;;10493011;28;20354;-70
2022/01/09 05:05:16;;;;;;;95.35;37.88;;;;;;;;;;10515978;28;20352;-70
2022/01/09 05:10:20;;;;;;;94.43;38.90;;;;;;;;;;10515020;28;20045;-71
2022/01/09 05:15:24;;;;;;;84.35;36.08;;;;;;;;;;10514655;28;20056;-70
2022/01/09 05:20:27;;;;;;;81.50;33.15;;;;;;;;;;10509382;28;20227;-71
2022/01/09 05:25:31;;;;;;;70.53;32.22;;;;;;;;;;10515743;28;20089;-70
2022/01/09 05:30:34;;;;;;;72.72;32.45;;;;;;;;;;10514108;28;20045;-70
2022/01/09 05:35:36;;;;;;;71.95;31.00;;;;;;;;;;10514827;28;20055;-71
2022/01/09 05:40:40;;;;;;;81.07;31.65;;;;;;;;;;10522233;28;20052;-71
2022/01/09 05:45:43;;;;;;;80.07;35.05;;;;;;;;;;10522461;28;20090;-71
2022/01/09 05:50:46;;;;;;;77.65;35.28;;;;;;;;;;10523355;28;20036;-70
2022/01/09 05:55:50;;;;;;;79.65;33.60;;;;;;;;;;10521518;28;20040;-69
2022/01/09 06:00:53;;;;;;;79.53;32.97;;;;;;;;;;10504975;28;20048;-70
2022/01/09 06:05:55;;;;;;;88.15;36.25;;;;;;;;;;10521968;28;20323;-70
2022/01/09 06:11:00;;;;;;;86.15;35.85;;;;;;;;;;10523718;28;20277;-71
2022/01/09 06:16:03;;;;;;;82.75;34.05;;;;;;;;;;10557559;28;20059;-71
2022/01/09 06:21:06;;;;;;;87.60;35.40;;;;;;;;;;10521501;28;20054;-71
2022/01/09 06:26:10;;;;;;;84.63;36.90;;;;;;;;;;10518296;28;20045;-70
2022/01/09 06:31:13;;;;;;;90.18;38.03;;;;;;;;;;10527035;28;20036;-70
2022/01/09 06:36:16;;;;;;;90.97;38.65;;;;;;;;;;10519900;28;20052;-70
2022/01/09 06:41:20;;;;;;;100.80;41.90;;;;;;;;;;10537382;28;20406;-71
2022/01/09 06:46:24;;;;;;;94.53;40.60;;;;;;;;;;10519504;28;20045;-72
2022/01/09 06:51:26;;;;;;;84.35;36.83;;;;;;;;;;10520587;28;20032;-72
2022/01/09 06:56:31;;;;;;;94.90;38.50;;;;;;;;;;10519577;28;20036;-73
2022/01/09 07:01:33;;;;;;;86.43;38.88;;;;;;;;;;10519506;28;20102;-70
2022/01/09 07:06:36;;;;;;;96.57;40.80;;;;;;;;;;10520012;28;20052;-72
2022/01/09 07:11:40;;;;;;;90.53;39.00;;;;;;;;;;10518845;28;20374;-72
2022/01/09 07:16:43;;;;;;;90.55;39.40;;;;;;;;;;10519083;28;20355;-70
2022/01/09 07:21:46;;;;;;;99.57;42.20;;;;;;;;;;10518733;28;20047;-72
2022/01/09 07:26:50;;;;;;;119.50;50.85;;;;;;;;;;10515799;28;20332;-72
2022/01/09 07:31:54;;;;;;;104.90;42.10;;;;;;;;;;10487099;28;20041;-70
2022/01/09 07:36:57;;;;;;;100.75;42.35;;;;;;;;;;10517954;28;20235;-70
2022/01/09 07:42:01;;;;;;;120.72;55.22;;;;;;;;;;10518777;28;20221;-71
2022/01/09 07:47:05;;;;;;;116.00;50.95;;;;;;;;;;10519362;28;20044;-71
2022/01/09 07:52:08;;;;;;;89.60;42.92;;;;;;;;;;10517267;28;20048;-72
2022/01/09 07:57:12;;;;;;;84.70;42.00;;;;;;;;;;10499363;28;20113;-72
2022/01/09 08:02:15;;;;;;;92.68;44.17;;;;;;;;;;10518364;28;20043;-71
2022/01/09 08:07:18;;;;;;;94.38;42.95;;;;;;;;;;10518773;28;20064;-72
2022/01/09 08:12:22;;;;;;;90.47;44.80;;;;;;;;;;10517868;28;20109;-72
2022/01/09 08:17:25;;;;;;;110.67;51.33;;;;;;;;;;10517701;28;20282;-71
2022/01/09 08:22:29;;;;;;;104.30;52.20;;;;;;;;;;10506767;28;20098;-72
2022/01/09 08:27:33;;;;;;;104.22;46.75;;;;;;;;;;10516196;28;20048;-71
2022/01/09 08:32:37;;;;;;;94.00;44.03;;;;;;;;;;10515959;28;20059;-71
2022/01/09 08:37:41;;;;;;;144.85;61.35;;;;;;;;;;10515533;28;20045;-73
2022/01/09 08:42:46;;;;;;;129.00;54.90;;;;;;;;;;10514664;28;20256;-70
2022/01/09 08:47:48;;;;;;;92.40;45.63;;;;;;;;;;10515218;28;20048;-70
2022/01/09 08:52:52;;;;;;;121.32;53.45;;;;;;;;;;10487670;28;20039;-71
2022/01/09 08:57:57;;;;;;;110.30;48.05;;;;;;;;;;10514222;28;20048;-72
2022/01/09 09:02:59;;;;;;;;;;;;;;;;;;10515066;28;20351;-71
2022/01/09 09:08:03;;;;;;;102.30;48.88;;;;;;;;;;10515876;28;19916;-70
2022/01/09 09:13:07;;;;;;;118.60;52.38;;;;;;;;;;10513051;28;20036;-68
2022/01/09 09:18:10;;;;;;;96.22;44.60;;;;;;;;;;10513958;28;20252;-70
2022/01/09 09:23:12;;;;;;;91.00;45.28;;;;;;;;;;10500403;28;20063;-71
2022/01/09 09:28:17;;;;;;;108.20;50.45;;;;;;;;;;10495897;28;20049;-70
2022/01/09 09:33:19;;;;;;;96.97;46.15;;;;;;;;;;10482248;28;20041;-76
2022/01/09 09:38:22;;;;;;;94.53;43.85;;;;;;;;;;10515471;28;20366;-69
2022/01/09 09:43:27;;;;;;;89.38;43.45;;;;;;;;;;10515079;28;20111;-71
2022/01/09 09:48:29;;;;;;;91.17;43.87;;;;;;;;;;10514014;28;20049;-70
2022/01/09 09:53:33;;;;;;;89.65;42.42;;;;;;;;;;10511402;28;20057;-71
2022/01/09 09:58:39;;;;;;;98.75;43.58;;;;;;;;;;10477390;28;20056;-71
2022/01/09 10:03:42;;;;;;;94.38;42.13;;;;;;;;;;10526744;28;20045;-71
2022/01/09 10:08:50;;;;;;;89.53;41.35;;;;;;;;;;10508035;28;20086;-69
2022/01/09 10:14:12;;;;;;;92.13;41.45;;;;;;;;;;10511018;28;20332;-73
2022/01/09 10:19:17;;;;;;;80.82;39.08;;;;;;;;;;10527342;28;20036;-71
2022/01/09 10:24:20;;;;;;;86.22;40.92;;;;;;;;;;10530169;28;20093;-71
2022/01/09 10:29:31;;;;;;;78.53;36.88;;;;;;;;;;10520089;28;20049;-71
2022/01/09 10:34:34;;;;;;;73.88;35.95;;;;;;;;;;10528463;28;20044;-73
2022/01/09 10:39:38;;;;;;;79.90;36.60;;;;;;;;;;10520121;28;20090;-72
2022/01/09 10:44:44;;;;;;;76.85;37.33;;;;;;;;;;10520160;28;20056;-71
2022/01/09 10:49:49;;;;;;;69.85;36.33;;;;;;;;;;10518848;28;20063;-72
2022/01/09 10:54:54;;;;;;;83.78;39.35;;;;;;;;;;10519662;28;20082;-72
2022/01/09 11:00:07;;;;;;;71.85;36.05;;;;;;;;;;10516263;28;20316;-71
2022/01/09 11:05:10;;;;;;;78.85;38.58;;;;;;;;;;10517975;28;20041;-71
2022/01/09 11:10:16;;;;;;;82.20;38.10;;;;;;;;;;10517964;28;20235;-72
2022/01/09 11:15:22;;;;;;;77.07;35.55;;;;;;;;;;10487866;28;20057;-72
2022/01/09 11:20:24;;;;;;;62.95;31.63;;;;;;;;;;10518148;28;20041;-72
2022/01/09 11:25:32;;;;;;;77.38;37.25;;;;;;;;;;10518736;28;20070;-71
2022/01/09 11:30:51;;;;;;;82.72;40.95;;;;;;;;;;10528112;28;20044;-72
2022/01/09 11:36:03;;;;;;;80.90;37.55;;;;;;;;;;10522334;28;20047;-71
2022/01/09 11:41:16;;;;;;;78.15;36.60;;;;;;;;;;10530655;28;20040;-72
2022/01/09 11:46:20;;;;;;;73.03;35.85;;;;;;;;;;10517119;28;20040;-71
2022/01/09 11:51:25;;;;;;;82.43;38.88;;;;;;;;;;10516827;28;20533;-72
2022/01/09 11:56:56;;;;;;;71.55;32.63;;;;;;;;;;10516109;28;20044;-72
2022/01/09 12:02:02;;;;;;;73.53;35.25;;;;;;;;;;10530312;28;20048;-73
2022/01/09 12:07:07;;;;;;;68.18;34.03;;;;;;;;;;10525305;28;20442;-70
2022/01/09 12:12:11;;;;;;;67.57;33.30;;;;;;;;;;10500118;28;20059;-71
2022/01/09 12:17:41;;;;;;;69.03;33.97;;;;;;;;;;10517185;28;20061;-68
2022/01/09 12:23:01;;;;;;;70.95;35.05;;;;;;;;;;10530751;28;20047;-74
2022/01/09 12:28:10;;;;;;;72.82;36.65;;;;;;;;;;10531649;28;20362;-73
2022/01/09 12:33:16;;;;;;;79.20;37.08;;;;;;;;;;10529627;28;20044;-72
2022/01/09 12:38:22;;;;;;;70.95;34.80;;;;;;;;;;10531236;28;20047;-71
2022/01/09 12:43:26;;;;;;;73.30;35.97;;;;;;;;;;10530020;28;20040;-71
2022/01/09 12:48:32;;;;;;;70.55;34.22;;;;;;;;;;10515406;28;20045;-69
2022/01/09 12:53:39;;;;;;;81.60;38.35;;;;;;;;;;10509140;28;20270;-71
2022/01/09 12:58:43;;;;;;;79.03;36.50;;;;;;;;;;10527251;28;20264;-70
2022/01/09 13:03:49;;;;;;;85.95;40.00;;;;;;;;;;10516104;28;20055;-72
2022/01/09 13:08:56;;;;;;;77.63;37.42;;;;;;;;;;10528882;28;20090;-69
2022/01/09 13:14:00;;;;;;;83.15;39.08;;;;;;;;;;10516218;28;20047;-73
2022/01/09 13:19:06;;;;;;;86.53;39.92;;;;;;;;;;10515681;28;20052;-69
2022/01/09 13:24:14;;;;;;;78.93;37.17;;;;;;;;;;10529184;28;20036;-71
2022/01/09 13:29:19;;;;;;;71.70;33.78;;;;;;;;;;10515730;28;20290;-69
2022/01/09 13:34:31;;;;;;;77.50;39.03;;;;;;;;;;10515706;28;20336;-70
2022/01/09 13:39:34;;;;;;;89.28;39.33;;;;;;;;;;10528515;28;20041;-69
2022/01/09 13:44:38;;;;;;;80.80;38.80;;;;;;;;;;10515110;28;20040;-72
2022/01/09 13:49:59;;;;;;;91.43;41.40;;;;;;;;;;10514516;28;20082;-71
2022/01/09 13:55:04;;;;;;;82.95;41.15;;;;;;;;;;10527631;28;20322;-70
2022/01/09 14:00:11;;;;;;;91.78;42.72;;;;;;;;;;10494728;28;20078;-71
2022/01/09 14:05:18;;;;;;;90.72;43.15;;;;;;;;;;10536597;28;20044;-71
2022/01/09 14:10:22;;;;;;;96.13;43.80;;;;;;;;;;10535774;28;20102;-72
2022/01/09 14:15:28;;;;;;;91.80;43.63;;;;;;;;;;10522508;28;20052;-71
2022/01/09 14:20:32;;;;;;;96.85;44.03;;;;;;;;;;10536291;28;20036;-70
2022/01/09 14:25:51;;;;;;;101.05;47.80;;;;;;;;;;10532794;28;20044;-72
2022/01/09 14:31:04;;;;;;;97.30;46.20;;;;;;;;;;10521816;28;20036;-70
2022/01/09 14:36:12;;;;;;;90.93;44.08;;;;;;;;;;10521612;28;20271;-69
2022/01/09 14:41:14;;;;;;;103.82;47.72;;;;;;;;;;10520227;28;20052;-72
2022/01/09 14:46:17;;;;;;;104.55;45.50;;;;;;;;;;10521246;28;20079;-70
2022/01/09 14:51:22;;;;;;;98.13;47.05;;;;;;;;;;10521181;28;20051;-73
2022/01/09 14:56:25;;;;;;;104.00;48.65;;;;;;;;;;10521260;28;20402;-73
2022/01/09 15:01:28;;;;;;;99.70;46.03;;;;;;;;;;10519418;28;20056;-71
2022/01/09 15:06:33;;;;;;;104.45;48.33;;;;;;;;;;10520553;28;20060;-71
2022/01/09 15:11:36;;;;;;;114.65;53.05;;;;;;;;;;10518762;28;20247;-70
2022/01/09 15:16:38;;;;;;;115.10;51.35;;;;;;;;;;10520443;28;20057;-70
2022/01/09 15:21:43;;;;;;;117.63;54.38;;;;;;;;;;10519733;28;20041;-71
2022/01/09 15:26:46;;;;;;;127.22;59.55;;;;;;;;;;10509467;28;20045;-71
2022/01/09 15:31:50;;;;;;;120.30;54.03;;;;;;;;;;10518323;28;20088;-70
2022/01/09 15:36:54;;;;;;;112.47;50.15;;;;;;;;;;10519150;28;20049;-69
2022/01/09 15:41:57;;;;;;;132.02;63.97;;;;;;;;;;10518240;28;20048;-72
2022/01/09 15:47:00;;;;;;;133.07;58.90;;;;;;;;;;10489523;28;20041;-70
2022/01/09 15:52:06;;;;;;;124.20;54.45;;;;;;;;;;10524141;28;20041;-72
2022/01/09 15:57:09;;;;;;;107.93;52.15;;;;;;;;;;10533782;28;20032;-71
2022/01/09 16:02:12;;;;;;;115.95;46.67;;;;;;;;;;10507305;28;20055;-71
2022/01/09 16:07:16;;;;;;;107.68;47.70;;;;;;;;;;10517925;28;20100;-70
2022/01/09 16:12:19;;;;;;;100.60;43.45;;;;;;;;;;10553319;28;20048;-74
2022/01/09 16:17:22;;;;;;;108.57;45.90;;;;;;;;;;10516510;28;20048;-72
2022/01/09 16:22:26;;;;;;;109.13;47.22;;;;;;;;;;10524547;28;20093;-71
2022/01/09 16:27:29;;;;;;;94.88;40.95;;;;;;;;;;10517343;28;20209;-73
2022/01/09 16:32:32;;;;;;;101.18;46.95;;;;;;;;;;10532750;28;20348;-72
2022/01/09 16:37:36;;;;;;;92.03;42.38;;;;;;;;;;10516783;28;20067;-71
2022/01/09 16:42:39;;;;;;;98.85;42.50;;;;;;;;;;10513930;28;20048;-72
2022/01/09 16:47:43;;;;;;;95.22;43.17;;;;;;;;;;10523877;28;20079;-72
2022/01/09 16:52:48;;;;;;;92.70;40.07;;;;;;;;;;10517161;28;20056;-71
2022/01/09 16:57:50;;;;;;;93.47;41.88;;;;;;;;;;10516801;28;20659;-71
2022/01/09 17:02:53;;;;;;;96.40;40.25;;;;;;;;;;10515633;28;20220;-71
2022/01/09 17:07:57;;;;;;;91.03;43.70;;;;;;;;;;10519628;28;20244;-71
2022/01/09 17:13:00;;;;;;;93.97;42.50;;;;;;;;;;10515949;28;20040;-71
2022/01/09 17:18:03;;;;;;;186.18;62.30;;;;;;;;;;10515430;28;20119;-71
2022/01/09 17:23:08;;;;;;;183.85;66.55;;;;;;;;;;10516589;28;20040;-71
2022/01/09 17:28:11;;;;;;;132.52;54.67;;;;;;;;;;10545514;28;20051;-72
2022/01/09 17:33:14;;;;;;;92.43;39.30;;;;;;;;;;10518634;28;20048;-74
2022/01/09 17:38:18;;;;;;;100.18;39.45;;;;;;;;;;10524503;28;20036;-71
2022/01/09 17:43:21;;;;;;;86.95;40.97;;;;;;;;;;10523627;28;20048;-71
2022/01/09 17:48:24;;;;;;;93.00;41.03;;;;;;;;;;10522600;28;20217;-71
2022/01/09 17:53:28;;;;;;;86.97;36.90;;;;;;;;;;10523331;28;20051;-71
2022/01/09 17:58:32;;;;;;;87.55;38.92;;;;;;;;;;10521882;28;20096;-72
2022/01/09 18:03:35;;;;;;;85.30;34.58;;;;;;;;;;10522161;28;20328;-70
2022/01/09 18:08:39;;;;;;;82.05;35.80;;;;;;;;;;10536509;28;20250;-70
2022/01/09 18:13:42;;;;;;;86.40;36.17;;;;;;;;;;10505558;28;20048;-71
2022/01/09 18:18:45;;;;;;;78.88;35.58;;;;;;;;;;10524996;28;20055;-71
2022/01/09 18:23:50;;;;;;;86.25;39.08;;;;;;;;;;10521852;28;20040;-71
2022/01/09 18:28:53;;;;;;;88.03;39.28;;;;;;;;;;10521931;28;20052;-69
2022/01/09 18:33:56;;;;;;;85.13;38.78;;;;;;;;;;10519924;28;20048;-73
2022/01/09 18:39:01;;;;;;;84.22;37.08;;;;;;;;;;10517715;28;20041;-71
2022/01/09 18:44:04;;;;;;;91.65;41.20;;;;;;;;;;10531291;28;20304;-72
2022/01/09 18:49:07;;;;;;;125.43;48.35;;;;;;;;;;10520172;28;20040;-73
2022/01/09 18:54:13;;;;;;;110.88;44.13;;;;;;;;;;10514601;28;20047;-70
2022/01/09 18:59:15;;;;;;;93.03;36.08;;;;;;;;;;10532360;28;20048;-72
2022/01/09 19:04:19;;;;;;;96.97;40.78;;;;;;;;;;10515218;28;20092;-72
2022/01/09 19:09:23;;;;;;;105.93;43.30;;;;;;;;;;10518559;28;20046;-74
2022/01/09 19:14:30;;;;;;;95.90;40.13;;;;;;;;;;10517843;28;20056;-72
2022/01/09 19:19:33;;;;;;;101.78;42.42;;;;;;;;;;10514652;28;20056;-71
2022/01/09 19:24:37;;;;;;;94.70;39.00;;;;;;;;;;10522106;28;20036;-70
2022/01/09 19:29:39;;;;;;;94.72;39.47;;;;;;;;;;10515968;28;20044;-71
2022/01/09 19:34:44;;;;;;;107.88;43.60;;;;;;;;;;10515216;28;20046;-71
2022/01/09 19:39:48;;;;;;;130.97;52.40;;;;;;;;;;10517991;28;20047;-73
2022/01/09 19:44:51;;;;;;;116.07;48.78;;;;;;;;;;10516216;28;20037;-72
2022/01/09 19:49:54;;;;;;;117.30;47.78;;;;;;;;;;10522193;28;20056;-73
2022/01/09 19:55:00;;;;;;;105.32;43.95;;;;;;;;;;10516949;28;20040;-73
2022/01/09 20:00:03;;;;;;;;;;;;;;;;;;10518818;28;20048;-71
2022/01/09 20:05:08;;;;;;;110.97;45.90;;;;;;;;;;10517926;28;19922;-73
2022/01/09 20:10:14;;;;;;;114.47;43.42;;;;;;;;;;10516969;28;20059;-72
2022/01/09 20:15:17;;;;;;;103.82;44.00;;;;;;;;;;10516778;28;20332;-71
2022/01/09 20:20:24;;;;;;;105.30;44.28;;;;;;;;;;10516437;28;20090;-71
2022/01/09 20:25:29;;;;;;;128.02;49.40;;;;;;;;;;10527752;28;20040;-70
2022/01/09 20:30:32;;;;;;;102.90;43.47;;;;;;;;;;10514790;28;20054;-73
2022/01/09 20:35:35;;;;;;;101.25;42.38;;;;;;;;;;10515577;28;20044;-73
2022/01/09 20:40:39;;;;;;;100.88;44.45;;;;;;;;;;10515805;28;20040;-73
2022/01/09 20:45:43;;;;;;;99.93;44.22;;;;;;;;;;10519410;28;20083;-72
2022/01/09 20:50:45;;;;;;;98.45;44.38;;;;;;;;;;10515532;28;20082;-72
2022/01/09 20:55:50;;;;;;;114.25;50.65;;;;;;;;;;10515983;28;20059;-73
2022/01/09 21:00:52;;;;;;;123.60;48.13;;;;;;;;;;10503506;28;20049;-71
2022/01/09 21:05:57;;;;;;;122.15;50.42;;;;;;;;;;10515394;28;20036;-73
2022/01/09 21:11:02;;;;;;;123.63;53.88;;;;;;;;;;10516822;28;20044;-72
2022/01/09 21:16:06;;;;;;;112.38;46.42;;;;;;;;;;10516069;28;20158;-72
2022/01/09 21:21:10;;;;;;;116.83;52.03;;;;;;;;;;10516296;28;20098;-73
2022/01/09 21:26:14;;;;;;;115.60;47.70;;;;;;;;;;10515871;28;20316;-72
2022/01/09 21:31:17;;;;;;;110.28;47.45;;;;;;;;;;10515117;28;20407;-72
2022/01/09 21:36:20;;;;;;;97.82;43.92;;;;;;;;;;10515176;28;20048;-72
2022/01/09 21:41:24;;;;;;;111.53;45.60;;;;;;;;;;10515681;28;20105;-72
2022/01/09 21:46:27;;;;;;;109.60;44.63;;;;;;;;;;10515018;28;20228;-73
2022/01/09 21:51:30;;;;;;;111.78;48.15;;;;;;;;;;10494830;28;20076;-72
2022/01/09 21:56:34;;;;;;;108.82;44.67;;;;;;;;;;10474181;28;20441;-71
2022/01/09 22:01:37;;;;;;;109.13;44.40;;;;;;;;;;10520820;28;20075;-73
2022/01/09 22:06:41;;;;;;;102.55;43.63;;;;;;;;;;10536199;28;20044;-72
2022/01/09 22:11:46;;;;;;;111.45;46.58;;;;;;;;;;10519754;28;20059;-72
2022/01/09 22:16:48;;;;;;;;;;;;;;;;;;10516709;28;20336;-71
2022/01/09 22:21:52;;;;;;;103.90;41.38;;;;;;;;;;10543942;28;19923;-73
2022/01/09 22:26:56;;;;;;;116.38;46.35;;;;;;;;;;10565560;28;20032;-73
2022/01/09 22:32:00;;;;;;;106.75;47.10;;;;;;;;;;10535989;28;20116;-72
2022/01/09 22:37:04;;;;;;;108.30;45.92;;;;;;;;;;10522713;28;20249;-73
2022/01/09 22:42:08;;;;;;;117.32;49.33;;;;;;;;;;10521704;28;20067;-73
2022/01/09 22:47:14;;;;;;;118.82;49.78;;;;;;;;;;10521712;28;20040;-72
2022/01/09 22:52:20;;;;;;;123.95;51.30;;;;;;;;;;10534700;28;20397;-72
2022/01/09 22:57:24;;;;;;;117.50;51.58;;;;;;;;;;10534403;28;20287;-72
2022/01/09 23:02:27;;;;;;;118.72;48.50;;;;;;;;;;10520498;28;20044;-71
2022/01/09 23:07:29;;;;;;;115.38;49.53;;;;;;;;;;10520356;28;20048;-72
2022/01/09 23:12:33;;;;;;;113.68;49.10;;;;;;;;;;10520065;28;20248;-74
2022/01/09 23:17:38;;;;;;;113.90;49.05;;;;;;;;;;10519935;28;20052;-72
2022/01/09 23:22:41;;;;;;;103.55;44.92;;;;;;;;;;10519145;28;20059;-72
2022/01/09 23:27:45;;;;;;;115.13;47.35;;;;;;;;;;10519256;28;20044;-72
2022/01/09 23:32:48;;;;;;;102.22;42.90;;;;;;;;;;10518876;28;20059;-72
2022/01/09 23:37:52;;;;;;;109.47;46.50;;;;;;;;;;10518180;28;20062;-74
2022/01/09 23:42:56;;;;;;;108.88;49.28;;;;;;;;;;10518477;28;20055;-73
2022/01/09 23:48:05;;;;;;;111.13;45.95;;;;;;;;;;10518528;28;20056;-71
2022/01/09 23:53:10;;;;;;;100.57;44.75;;;;;;;;;;10534147;28;20052;-72
2022/01/09 23:58:16;;;;;;;113.57;43.67;;;;;;;;;;10518868;28;20108;-73
